createdAt,value
2023-03-20T00:02:14.604Z,97683.02
2023-03-20T00:04:42.785Z,97683.56
2023-03-20T00:07:12.210Z,97679.55
2023-03-20T00:09:40.220Z,97674.98
2023-03-20T00:12:18.337Z,97674.23
2023-03-20T00:14:46.129Z,97677.48
2023-03-20T00:17:20.687Z,97678.05
2023-03-20T00:19:48.945Z,97675.11
2023-03-20T00:22:16.597Z,97680.23
2023-03-20T00:24:44.133Z,97671.66
2023-03-20T00:27:17.266Z,97682.97
2023-03-20T00:29:45.475Z,97678.69
2023-03-20T00:32:14.750Z,97679.21
2023-03-20T00:34:43.022Z,97677.59
2023-03-20T00:37:12.673Z,97680.27
2023-03-20T00:39:41.026Z,97679.46
2023-03-20T00:42:16.756Z,97672.50
2023-03-20T00:44:54.467Z,97677.66
2023-03-20T00:47:24.811Z,97678.50
2023-03-20T00:49:55.313Z,97676.37
2023-03-20T00:52:23.593Z,97682.00
2023-03-20T00:54:52.621Z,97681.50
2023-03-20T00:57:34.951Z,97677.47
2023-03-20T01:00:38.846Z,97677.19
2023-03-20T01:03:15.274Z,97669.98
2023-03-20T01:05:44.448Z,97672.41
2023-03-20T01:08:22.026Z,97674.82
2023-03-20T01:10:53.942Z,97668.95
2023-03-20T01:13:29.475Z,97667.36
2023-03-20T01:15:58.560Z,97661.45
2023-03-20T01:18:26.908Z,97666.58
2023-03-20T01:20:54.784Z,97660.42
2023-03-20T01:23:22.557Z,97656.72
2023-03-20T01:25:50.837Z,97663.17
2023-03-20T01:28:22.849Z,97664.27
2023-03-20T01:30:51.062Z,97660.78
2023-03-20T01:33:22.738Z,97662.39
2023-03-20T01:35:52.538Z,97657.32
2023-03-20T01:38:28.135Z,97663.00
2023-03-20T01:41:17.667Z,97661.42
2023-03-20T01:43:46.366Z,97663.33
2023-03-20T01:46:28.138Z,97661.20
2023-03-20T01:49:04.394Z,97663.94
2023-03-20T01:51:32.962Z,97659.98
2023-03-20T01:54:19.257Z,97657.85
2023-03-20T01:57:11.618Z,97662.44
2023-03-20T01:59:47.853Z,97663.27
2023-03-20T02:02:19.980Z,97663.02
2023-03-20T02:04:52.170Z,97661.14
2023-03-20T02:07:23.476Z,97659.50
2023-03-20T02:09:53.532Z,97659.75
2023-03-20T02:12:23.047Z,97658.16
2023-03-20T02:14:52.622Z,97652.79
2023-03-20T02:17:22.088Z,97666.45
2023-03-20T02:20:24.574Z,97656.51
2023-03-20T02:23:23.304Z,97657.85
2023-03-20T02:26:06.303Z,97660.53
2023-03-20T02:29:19.005Z,97661.37
2023-03-20T02:32:20.131Z,97661.64
2023-03-20T02:35:28.855Z,97663.27
2023-03-20T02:38:15.188Z,97663.03
2023-03-20T02:43:59.852Z,97658.83
2023-03-20T02:46:49.859Z,97664.20
2023-03-20T02:50:07.831Z,97666.92
2023-03-20T02:52:56.847Z,97660.22
2023-03-20T02:55:48.005Z,97664.75
2023-03-20T02:58:24.722Z,97662.29
2023-03-20T03:01:12.750Z,97656.62
2023-03-20T03:04:01.709Z,97655.22
2023-03-20T03:06:36.622Z,97660.53
2023-03-20T03:09:23.650Z,97656.76
2023-03-20T03:12:03.030Z,97654.08
2023-03-20T03:14:41.527Z,97646.02
2023-03-20T03:17:13.400Z,97644.44
2023-03-20T03:19:47.450Z,97637.72
2023-03-20T03:22:16.864Z,97633.70
2023-03-20T03:24:54.288Z,97638.27
2023-03-20T03:27:33.142Z,97649.30
2023-03-20T03:30:12.318Z,97648.45
2023-03-20T03:32:45.858Z,97641.75
2023-03-20T03:35:20.851Z,97644.73
2023-03-20T03:37:57.152Z,97641.75
2023-03-20T03:40:36.632Z,97650.05
2023-03-20T03:43:31.104Z,97653.02
2023-03-20T03:46:07.896Z,97643.09
2023-03-20T03:48:44.016Z,97643.93
2023-03-20T03:51:16.363Z,97646.02
2023-03-20T03:53:53.901Z,97640.66
2023-03-20T03:56:25.608Z,97637.97
2023-03-20T03:58:59.224Z,97632.34
2023-03-20T04:01:28.660Z,97625.09
2023-03-20T04:04:04.720Z,97631.55
2023-03-20T04:06:32.522Z,97637.16
2023-03-20T04:09:00.266Z,97634.73
2023-03-20T04:11:28.704Z,97637.41
2023-03-20T04:13:56.462Z,97640.63
2023-03-20T04:16:25.741Z,97646.50
2023-03-20T04:18:55.416Z,97644.06
2023-03-20T04:21:24.282Z,97648.94
2023-03-20T04:23:52.453Z,97646.80
2023-03-20T04:26:23.061Z,97644.11
2023-03-20T04:28:51.571Z,97641.19
2023-03-20T04:31:37.661Z,97638.52
2023-03-20T04:34:12.968Z,97640.72
2023-03-20T04:37:00.782Z,97635.09
2023-03-20T04:39:29.965Z,97642.34
2023-03-20T04:41:57.537Z,97636.98
2023-03-20T04:44:25.322Z,97645.52
2023-03-20T04:46:53.104Z,97644.17
2023-03-20T04:49:21.264Z,97633.13
2023-03-20T04:51:49.628Z,97628.80
2023-03-20T04:54:19.170Z,97624.48
2023-03-20T04:56:47.874Z,97635.22
2023-03-20T04:59:17.820Z,97640.33
2023-03-20T05:01:45.582Z,97644.36
2023-03-20T05:04:13.717Z,97642.22
2023-03-20T05:06:43.380Z,97649.19
2023-03-20T05:09:11.263Z,97649.19
2023-03-20T05:11:39.032Z,97645.70
2023-03-20T05:14:06.680Z,97654.30
2023-03-20T05:16:39.513Z,97655.08
2023-03-20T05:19:12.116Z,97666.32
2023-03-20T05:22:00.716Z,97664.67
2023-03-20T05:24:36.388Z,97656.62
2023-03-20T05:27:05.882Z,97668.39
2023-03-20T05:29:35.748Z,97670.52
2023-03-20T05:32:09.380Z,97668.06
2023-03-20T05:34:41.389Z,97675.01
2023-03-20T05:37:13.829Z,97676.85
2023-03-20T05:40:09.622Z,97678.43
2023-03-20T05:42:37.212Z,97685.88
2023-03-20T05:45:23.043Z,97683.16
2023-03-20T05:47:56.921Z,97680.42
2023-03-20T05:50:26.821Z,97679.25
2023-03-20T05:53:13.195Z,97677.87
2023-03-20T05:55:51.418Z,97674.56
2023-03-20T05:58:26.542Z,97672.91
2023-03-20T06:01:05.700Z,97672.56
2023-03-20T06:03:51.790Z,97670.91
2023-03-20T06:06:21.420Z,97676.45
2023-03-20T06:08:49.901Z,97679.38
2023-03-20T06:11:18.268Z,97689.20
2023-03-20T06:13:46.362Z,97691.58
2023-03-20T06:16:14.686Z,97688.84
2023-03-20T06:18:42.217Z,97690.36
2023-03-20T06:21:11.909Z,97690.01
2023-03-20T06:23:40.140Z,97679.94
2023-03-20T06:26:09.256Z,97673.11
2023-03-20T06:28:38.737Z,97669.16
2023-03-20T06:31:09.555Z,97677.33
2023-03-20T06:33:37.669Z,97681.55
2023-03-20T06:36:06.123Z,97686.84
2023-03-20T06:38:33.929Z,97686.17
2023-03-20T06:41:04.246Z,97689.54
2023-03-20T06:43:32.466Z,97685.07
2023-03-20T06:46:00.569Z,97682.77
2023-03-20T06:48:30.187Z,97680.67
2023-03-20T06:50:57.694Z,97686.14
2023-03-20T06:53:27.141Z,97694.57
2023-03-20T06:56:02.613Z,97693.05
2023-03-20T06:58:30.601Z,97690.94
2023-03-20T07:00:58.133Z,97687.50
2023-03-20T07:03:26.363Z,97688.91
2023-03-20T07:05:54.558Z,97685.94
2023-03-20T07:08:23.352Z,97676.19
2023-03-20T07:10:52.533Z,97668.56
2023-03-20T07:13:21.327Z,97683.02
2023-03-20T07:16:03.417Z,97678.63
2023-03-20T07:18:21.223Z,97676.89
2023-03-20T07:20:51.633Z,97670.28
2023-03-20T07:23:19.909Z,97667.91
2023-03-20T07:25:48.253Z,97661.80
2023-03-20T07:28:17.147Z,97649.46
2023-03-20T07:30:46.616Z,97661.16
2023-03-20T07:33:16.253Z,97661.20
2023-03-20T07:35:46.117Z,97652.66
2023-03-20T07:38:13.892Z,97654.75
2023-03-20T07:40:48.054Z,97650.80
2023-03-20T07:43:17.534Z,97656.64
2023-03-20T07:45:51.067Z,97654.16
2023-03-20T07:48:20.033Z,97654.63
2023-03-20T07:50:49.078Z,97654.23
2023-03-20T07:53:17.025Z,97649.87
2023-03-20T07:55:46.241Z,97650.09
2023-03-20T07:58:14.431Z,97648.55
2023-03-20T08:00:42.300Z,97637.86
2023-03-20T08:03:10.480Z,97626.70
2023-03-20T08:05:38.538Z,97624.56
2023-03-20T08:08:06.487Z,97629.58
2023-03-20T08:10:34.369Z,97628.19
2023-03-20T08:13:02.060Z,97636.36
2023-03-20T08:15:29.711Z,97631.42
2023-03-20T08:17:58.400Z,97625.31
2023-03-20T08:20:26.393Z,97637.70
2023-03-20T08:22:54.569Z,97644.28
2023-03-20T08:25:22.528Z,97654.27
2023-03-20T08:27:50.305Z,97654.27
2023-03-20T08:30:18.238Z,97662.44
2023-03-20T08:32:46.076Z,97672.16
2023-03-20T08:35:29.809Z,97666.06
2023-03-20T08:37:43.206Z,97664.06
2023-03-20T08:40:13.565Z,97677.47
2023-03-20T08:42:41.227Z,97680.07
2023-03-20T08:45:10.781Z,97675.38
2023-03-20T08:47:40.612Z,97677.16
2023-03-20T08:50:09.901Z,97682.98
2023-03-20T08:52:37.517Z,97682.04
2023-03-20T08:55:07.534Z,97686.37
2023-03-20T08:57:35.194Z,97676.93
2023-03-20T09:00:03.726Z,97687.73
2023-03-20T09:02:31.697Z,97683.66
2023-03-20T09:04:59.431Z,97679.92
2023-03-20T09:07:27.120Z,97679.45
2023-03-20T09:09:55.079Z,97661.37
2023-03-20T09:12:22.970Z,97659.53
2023-03-20T09:14:50.678Z,97663.58
2023-03-20T09:17:18.617Z,97664.69
2023-03-20T09:19:46.171Z,97658.19
2023-03-20T09:22:16.997Z,97662.88
2023-03-20T09:24:45.916Z,97659.89
2023-03-20T09:27:13.871Z,97653.66
2023-03-20T09:29:43.132Z,97658.34
2023-03-20T09:32:14.419Z,97659.90
2023-03-20T09:34:42.435Z,97659.11
2023-03-20T09:37:10.062Z,97666.68
2023-03-20T09:39:37.708Z,97665.78
2023-03-20T09:42:30.782Z,97658.19
2023-03-20T09:45:39.176Z,97661.70
2023-03-20T09:48:24.890Z,97661.02
2023-03-20T09:51:19.564Z,97658.16
2023-03-20T09:53:56.280Z,97660.55
2023-03-20T09:56:28.128Z,97660.31
2023-03-20T09:58:59.452Z,97646.48
2023-03-20T10:01:41.548Z,97647.38
2023-03-20T10:04:11.947Z,97646.02
2023-03-20T10:06:39.878Z,97637.59
2023-03-20T10:09:27.266Z,97632.14
2023-03-20T10:12:24.344Z,97630.84
2023-03-20T10:15:21.485Z,97629.67
2023-03-20T10:18:27.108Z,97627.12
2023-03-20T10:21:05.261Z,97629.14
2023-03-20T10:23:49.306Z,97623.27
2023-03-20T10:26:21.737Z,97623.20
2023-03-20T10:29:01.665Z,97626.33
2023-03-20T10:31:53.058Z,97618.55
2023-03-20T10:34:34.803Z,97612.52
2023-03-20T10:37:19.711Z,97608.53
2023-03-20T10:39:52.958Z,97606.03
2023-03-20T10:42:25.498Z,97608.42
2023-03-20T10:45:19.349Z,97604.05
2023-03-20T10:47:51.369Z,97598.96
2023-03-20T10:50:29.582Z,97593.59
2023-03-20T10:52:59.958Z,97587.20
2023-03-20T10:55:32.401Z,97587.80
2023-03-20T10:58:19.886Z,97579.22
2023-03-20T11:00:48.249Z,97578.21
2023-03-20T11:03:26.539Z,97580.82
2023-03-20T11:06:10.068Z,97569.95
2023-03-20T11:08:41.369Z,97570.06
2023-03-20T11:11:09.689Z,97568.19
2023-03-20T11:13:44.628Z,97565.79
2023-03-20T11:16:20.067Z,97558.02
2023-03-20T11:18:49.525Z,97555.28
2023-03-20T11:21:29.069Z,97549.70
2023-03-20T11:23:57.475Z,97557.19
2023-03-20T11:26:38.273Z,97546.77
2023-03-20T11:29:20.787Z,97548.86
2023-03-20T11:31:49.862Z,97543.76
2023-03-20T11:34:26.585Z,97546.44
2023-03-20T11:37:10.455Z,97546.67
2023-03-20T11:39:39.681Z,97530.13
2023-03-20T11:42:27.388Z,97530.41
2023-03-20T11:45:08.501Z,97533.33
2023-03-20T11:47:36.775Z,97537.06
2023-03-20T11:50:28.729Z,97520.95
2023-03-20T11:52:58.893Z,97519.09
2023-03-20T11:55:37.730Z,97518.02
2023-03-20T11:58:12.430Z,97512.89
2023-03-20T12:00:43.071Z,97507.54
2023-03-20T12:03:39.603Z,97512.55
2023-03-20T12:06:24.385Z,97503.96
2023-03-20T12:09:00.322Z,97502.80
2023-03-20T12:11:50.958Z,97504.80
2023-03-20T12:14:45.515Z,97495.81
2023-03-20T12:17:42.989Z,97497.84
2023-03-20T12:20:38.992Z,97495.81
2023-03-20T12:23:14.669Z,97497.70
2023-03-20T12:26:08.412Z,97495.83
2023-03-20T12:29:02.253Z,97489.75
2023-03-20T12:31:55.146Z,97493.00
2023-03-20T12:34:46.598Z,97489.48
2023-03-20T12:37:17.310Z,97485.41
2023-03-20T12:39:57.309Z,97486.49
2023-03-20T12:42:36.436Z,97485.73
2023-03-20T12:45:15.517Z,97485.01
2023-03-20T12:48:15.304Z,97482.06
2023-03-20T12:51:15.900Z,97484.37
2023-03-20T12:54:13.296Z,97477.32
2023-03-20T12:57:12.216Z,97474.38
2023-03-20T13:00:03.911Z,97464.89
2023-03-20T13:02:56.235Z,97464.36
2023-03-20T13:05:32.685Z,97453.34
2023-03-20T13:08:14.575Z,97458.16
2023-03-20T13:10:59.978Z,97457.11
2023-03-20T13:13:53.747Z,97458.13
2023-03-20T13:16:47.983Z,97451.63
2023-03-20T13:19:54.000Z,97444.27
2023-03-20T13:22:36.200Z,97442.50
2023-03-20T13:25:44.179Z,97438.48
2023-03-20T13:28:34.314Z,97442.19
2023-03-20T13:31:35.237Z,97429.81
2023-03-20T13:34:34.803Z,97429.88
2023-03-20T13:37:35.286Z,97431.76
2023-03-20T13:40:26.203Z,97431.95
2023-03-20T13:43:01.972Z,97428.49
2023-03-20T13:45:37.225Z,97428.49
2023-03-20T13:48:34.360Z,97427.02
2023-03-20T13:51:29.009Z,97420.06
2023-03-20T13:54:14.228Z,97423.28
2023-03-20T13:57:06.922Z,97418.48
2023-03-20T13:59:55.245Z,97417.39
2023-03-20T14:02:52.574Z,97418.78
2023-03-20T14:05:25.609Z,97417.42
2023-03-20T14:07:58.185Z,97408.90
2023-03-20T14:10:33.145Z,97413.80
2023-03-20T14:13:05.576Z,97412.35
2023-03-20T14:15:40.132Z,97414.07
2023-03-20T14:18:17.762Z,97411.22
2023-03-20T14:20:53.241Z,97412.50
2023-03-20T14:23:43.778Z,97406.19
2023-03-20T14:26:22.336Z,97403.19
2023-03-20T14:29:03.111Z,97404.27
2023-03-20T14:31:33.769Z,97403.02
2023-03-20T14:34:12.842Z,97404.17
2023-03-20T14:36:59.385Z,97393.44
2023-03-20T14:40:10.529Z,97386.72
2023-03-20T14:42:55.269Z,97385.23
2023-03-20T14:45:49.626Z,97391.98
2023-03-20T14:48:34.706Z,97387.50
2023-03-20T14:51:23.173Z,97378.05
2023-03-20T14:53:59.010Z,97372.50
2023-03-20T14:56:34.782Z,97369.29
2023-03-20T14:59:05.102Z,97369.88
2023-03-20T15:01:45.966Z,97367.92
2023-03-20T15:04:43.127Z,97379.30
2023-03-20T15:07:26.540Z,97373.25
2023-03-20T15:09:58.668Z,97371.70
2023-03-20T15:12:31.102Z,97376.64
2023-03-20T15:15:07.306Z,97367.06
2023-03-20T15:17:42.997Z,97369.45
2023-03-20T15:20:28.281Z,97372.59
2023-03-20T15:23:01.534Z,97369.64
2023-03-20T15:25:33.812Z,97370.81
2023-03-20T15:28:07.024Z,97369.59
2023-03-20T15:30:38.802Z,97365.44
2023-03-20T15:33:13.405Z,97370.27
2023-03-20T15:35:41.887Z,97370.80
2023-03-20T15:38:14.059Z,97367.61
2023-03-20T15:40:50.493Z,97372.63
2023-03-20T15:43:17.168Z,97373.88
2023-03-20T15:45:45.582Z,97374.20
2023-03-20T15:48:19.917Z,97364.72
2023-03-20T15:50:54.960Z,97369.15
2023-03-20T15:53:33.387Z,97365.52
2023-03-20T15:56:17.758Z,97370.05
2023-03-20T15:58:38.483Z,97368.15
2023-03-20T16:01:08.074Z,97366.66
2023-03-20T16:03:38.265Z,97359.30
2023-03-20T16:06:10.687Z,97361.32
2023-03-20T16:08:38.688Z,97364.50
2023-03-20T16:11:13.805Z,97372.94
2023-03-20T16:13:47.847Z,97371.61
2023-03-20T16:16:23.276Z,97371.06
2023-03-20T16:18:51.594Z,97374.74
2023-03-20T16:21:29.830Z,97374.25
2023-03-20T16:23:59.727Z,97376.75
2023-03-20T16:26:28.249Z,97382.32
2023-03-20T16:29:04.281Z,97376.08
2023-03-20T16:31:35.321Z,97383.91
2023-03-20T16:34:09.580Z,97383.08
2023-03-20T16:36:38.876Z,97383.66
2023-03-20T16:39:23.252Z,97383.64
2023-03-20T16:41:58.766Z,97382.23
2023-03-20T16:44:36.412Z,97390.89
2023-03-20T16:47:17.649Z,97397.14
2023-03-20T16:49:53.759Z,97399.16
2023-03-20T16:52:31.189Z,97392.62
2023-03-20T16:55:00.780Z,97395.73
2023-03-20T16:57:34.093Z,97395.48
2023-03-20T17:00:07.833Z,97397.34
2023-03-20T17:02:40.382Z,97399.44
2023-03-20T17:05:12.924Z,97399.13
2023-03-20T17:07:42.043Z,97397.72
2023-03-20T17:10:21.196Z,97397.41
2023-03-20T17:12:51.019Z,97393.62
2023-03-20T17:15:22.514Z,97396.45
2023-03-20T17:17:51.081Z,97406.69
2023-03-20T17:20:23.694Z,97404.46
2023-03-20T17:22:52.148Z,97404.81
2023-03-20T17:25:20.756Z,97406.93
2023-03-20T17:27:48.604Z,97402.42
2023-03-20T17:30:25.056Z,97404.23
2023-03-20T17:32:52.719Z,97405.70
2023-03-20T17:35:20.582Z,97402.44
2023-03-20T17:37:48.690Z,97408.11
2023-03-20T17:40:24.900Z,97410.25
2023-03-20T17:42:53.389Z,97409.48
2023-03-20T17:45:21.397Z,97404.25
2023-03-20T17:47:51.030Z,97405.27
2023-03-20T17:50:24.565Z,97410.59
2023-03-20T17:52:53.202Z,97407.22
2023-03-20T17:55:20.909Z,97401.98
2023-03-20T17:57:49.151Z,97405.41
2023-03-20T18:00:23.872Z,97405.28
2023-03-20T18:02:52.522Z,97405.73
2023-03-20T18:05:20.638Z,97403.12
2023-03-20T18:07:48.210Z,97409.00
2023-03-20T18:10:32.316Z,97413.73
2023-03-20T18:13:01.555Z,97413.65
2023-03-20T18:15:30.919Z,97413.53
2023-03-20T18:17:58.511Z,97409.55
2023-03-20T18:20:30.735Z,97419.97
2023-03-20T18:22:58.720Z,97415.42
2023-03-20T18:25:26.983Z,97414.42
2023-03-20T18:27:57.264Z,97418.23
2023-03-20T18:30:36.579Z,97409.66
2023-03-20T18:33:05.149Z,97413.16
2023-03-20T18:35:33.922Z,97410.79
2023-03-20T18:38:02.242Z,97416.22
2023-03-20T18:40:36.856Z,97413.70
2023-03-20T18:43:05.342Z,97420.27
2023-03-20T18:45:32.966Z,97418.21
2023-03-20T18:48:02.581Z,97416.41
2023-03-20T18:50:37.957Z,97426.80
2023-03-20T18:53:07.092Z,97415.41
2023-03-20T18:55:36.325Z,97416.28
2023-03-20T18:58:05.770Z,97418.88
2023-03-20T19:00:40.824Z,97425.78
2023-03-20T19:03:10.981Z,97419.97
2023-03-20T19:05:39.341Z,97426.31
2023-03-20T19:08:07.134Z,97427.20
2023-03-20T19:10:42.030Z,97425.17
2023-03-20T19:13:14.446Z,97428.80
2023-03-20T19:15:43.109Z,97432.87
2023-03-20T19:18:17.577Z,97423.38
2023-03-20T19:20:48.349Z,97424.17
2023-03-20T19:23:19.429Z,97427.77
2023-03-20T19:25:52.857Z,97430.92
2023-03-20T19:28:38.668Z,97431.92
2023-03-20T19:30:56.590Z,97433.94
2023-03-20T19:33:24.546Z,97430.55
2023-03-20T19:36:02.780Z,97429.77
2023-03-20T19:38:24.973Z,97426.55
2023-03-20T19:40:54.324Z,97427.99
2023-03-20T19:43:23.074Z,97431.84
2023-03-20T19:45:56.474Z,97431.39
2023-03-20T19:48:43.221Z,97432.27
2023-03-20T19:51:00.193Z,97431.14
2023-03-20T19:53:29.698Z,97434.90
2023-03-20T19:55:57.633Z,97427.55
2023-03-20T19:58:25.132Z,97437.05
2023-03-20T20:00:58.068Z,97439.53
2023-03-20T20:03:24.816Z,97429.12
2023-03-20T20:05:53.025Z,97433.75
2023-03-20T20:08:30.927Z,97439.71
2023-03-20T20:10:53.184Z,97442.98
2023-03-20T20:13:27.804Z,97438.70
2023-03-20T20:15:57.421Z,97443.33
2023-03-20T20:18:27.349Z,97445.83
2023-03-20T20:22:02.526Z,97446.27
2023-03-20T20:23:28.555Z,97441.06
2023-03-20T20:25:58.490Z,97447.63
2023-03-20T20:28:26.891Z,97445.39
2023-03-20T20:30:56.897Z,97438.13
2023-03-20T20:33:28.730Z,97434.72
2023-03-20T20:36:34.405Z,97440.71
2023-03-20T20:38:44.933Z,97432.13
2023-03-20T20:40:54.287Z,97426.48
2023-03-20T20:43:43.812Z,97434.70
2023-03-20T20:45:51.843Z,97441.00
2023-03-20T20:48:19.759Z,97438.98
2023-03-20T20:50:48.233Z,97442.13
2023-03-20T20:53:15.813Z,97445.83
2023-03-20T20:55:43.269Z,97446.14
2023-03-20T20:58:11.258Z,97448.14
2023-03-20T21:00:50.645Z,97447.70
2023-03-20T21:03:09.263Z,97440.44
2023-03-20T21:05:39.450Z,97441.80
2023-03-20T21:08:07.173Z,97441.13
2023-03-20T21:10:35.291Z,97439.51
2023-03-20T21:13:03.014Z,97442.91
2023-03-20T21:15:30.728Z,97435.20
2023-03-20T21:18:01.593Z,97432.01
2023-03-20T21:20:29.377Z,97435.84
2023-03-20T21:22:57.678Z,97427.49
2023-03-20T21:25:39.045Z,97434.02
2023-03-20T21:27:56.894Z,97433.56
2023-03-20T21:30:24.761Z,97436.27
2023-03-20T21:32:52.572Z,97435.79
2023-03-20T21:35:20.322Z,97432.86
2023-03-20T21:40:17.508Z,97430.94
2023-03-20T21:42:46.141Z,97424.73
2023-03-20T21:46:13.527Z,97421.00
2023-03-20T21:48:33.342Z,97430.38
2023-03-20T21:53:18.063Z,97420.21
2023-03-20T22:01:02.148Z,97417.02
2023-03-20T22:02:44.799Z,97414.53
2023-03-20T22:31:03.353Z,97405.11
2023-03-20T22:36:02.914Z,97409.31
2023-03-20T22:41:02.731Z,97403.39
2023-03-20T22:43:02.383Z,97407.00
2023-03-20T22:45:15.009Z,97411.94
2023-03-20T22:47:42.989Z,97398.25
2023-03-20T22:50:11.099Z,97395.66
2023-03-20T22:52:48.503Z,97391.90
2023-03-20T22:55:09.524Z,97392.23
2023-03-20T22:57:45.669Z,97398.78
2023-03-20T23:00:10.059Z,97396.02
2023-03-20T23:02:37.945Z,97393.50
2023-03-20T23:05:07.811Z,97392.14
2023-03-20T23:07:37.019Z,97396.44
2023-03-20T23:10:07.036Z,97388.53
2023-03-20T23:12:36.063Z,97391.73
2023-03-20T23:15:05.452Z,97389.02
2023-03-20T23:17:33.187Z,97391.73
2023-03-20T23:20:10.859Z,97393.78
2023-03-20T23:22:30.218Z,97393.78
2023-03-20T23:25:02.884Z,97388.11
2023-03-20T23:27:27.542Z,97392.86
2023-03-20T23:29:55.184Z,97394.86
2023-03-20T23:32:22.603Z,97399.56
2023-03-20T23:34:50.287Z,97399.11
2023-03-20T23:37:17.895Z,97390.50
2023-03-20T23:39:45.694Z,97394.98
2023-03-20T23:42:29.210Z,97399.95
2023-03-20T23:44:53.522Z,97393.34
2023-03-20T23:47:20.191Z,97391.53
2023-03-20T23:49:44.489Z,97384.53
2023-03-20T23:52:12.848Z,97388.34
2023-03-20T23:54:40.507Z,97387.55
2023-03-20T23:57:08.771Z,97380.41
2023-03-20T23:59:39.549Z,97372.84
